sensor_id;sensor_type;location;lat;lon;timestamp;pressure;altitude;pressure_sealevel;temperature;humidity
20350;BME280;10332;50.208;18.988;2022-07-06T00:02:07;98172.22;;;20.63;96.80
20350;BME280;10332;50.208;18.988;2022-07-06T00:04:34;98170.22;;;20.57;97.11
20350;BME280;10332;50.208;18.988;2022-07-06T00:07:02;98167.56;;;20.57;97.21
20350;BME280;10332;50.208;18.988;2022-07-06T00:09:29;98163.44;;;20.55;97.06
20350;BME280;10332;50.208;18.988;2022-07-06T00:11:57;98171.22;;;20.48;97.28
20350;BME280;10332;50.208;18.988;2022-07-06T00:14:24;98174.22;;;20.45;96.96
20350;BME280;10332;50.208;18.988;2022-07-06T00:16:52;98177.34;;;20.49;96.85
20350;BME280;10332;50.208;18.988;2022-07-06T00:19:19;98168.09;;;20.45;97.11
20350;BME280;10332;50.208;18.988;2022-07-06T00:21:46;98175.56;;;20.49;96.94
20350;BME280;10332;50.208;18.988;2022-07-06T00:24:14;98178.22;;;20.49;97.02
20350;BME280;10332;50.208;18.988;2022-07-06T00:26:41;98174.53;;;20.42;97.46
20350;BME280;10332;50.208;18.988;2022-07-06T00:29:08;98171.72;;;20.44;96.86
20350;BME280;10332;50.208;18.988;2022-07-06T00:31:36;98175.53;;;20.41;97.19
20350;BME280;10332;50.208;18.988;2022-07-06T00:34:03;98172.19;;;20.39;97.12
20350;BME280;10332;50.208;18.988;2022-07-06T00:36:30;98177.19;;;20.42;97.03
20350;BME280;10332;50.208;18.988;2022-07-06T00:38:58;98181.13;;;20.38;96.53
20350;BME280;10332;50.208;18.988;2022-07-06T00:41:25;98186.13;;;20.33;96.53
20350;BME280;10332;50.208;18.988;2022-07-06T00:43:55;98188.25;;;20.29;96.61
20350;BME280;10332;50.208;18.988;2022-07-06T00:46:30;98184.78;;;20.29;96.63
20350;BME280;10332;50.208;18.988;2022-07-06T00:48:59;98178.97;;;20.17;96.90
20350;BME280;10332;50.208;18.988;2022-07-06T00:51:32;98188.41;;;20.20;96.66
20350;BME280;10332;50.208;18.988;2022-07-06T00:54:04;98177.13;;;20.09;97.04
20350;BME280;10332;50.208;18.988;2022-07-06T00:56:34;98184.59;;;20.14;97.02
20350;BME280;10332;50.208;18.988;2022-07-06T00:59:03;98185.91;;;20.10;97.02
20350;BME280;10332;50.208;18.988;2022-07-06T01:01:30;98177.94;;;20.10;97.31
20350;BME280;10332;50.208;18.988;2022-07-06T01:03:57;98178.13;;;20.08;97.33
20350;BME280;10332;50.208;18.988;2022-07-06T01:06:25;98181.59;;;20.09;97.32
20350;BME280;10332;50.208;18.988;2022-07-06T01:08:53;98180.94;;;20.15;96.86
20350;BME280;10332;50.208;18.988;2022-07-06T01:11:21;98174.81;;;20.15;97.01
20350;BME280;10332;50.208;18.988;2022-07-06T01:13:50;98168.69;;;20.14;97.12
20350;BME280;10332;50.208;18.988;2022-07-06T01:16:18;98162.69;;;20.12;97.09
20350;BME280;10332;50.208;18.988;2022-07-06T01:18:45;98162.88;;;20.10;96.94
20350;BME280;10332;50.208;18.988;2022-07-06T01:21:14;98165.69;;;20.09;96.74
20350;BME280;10332;50.208;18.988;2022-07-06T01:23:45;98159.91;;;20.05;96.85
20350;BME280;10332;50.208;18.988;2022-07-06T01:26:19;98169.16;;;20.01;96.64
20350;BME280;10332;50.208;18.988;2022-07-06T01:28:51;98165.19;;;19.97;96.77
20350;BME280;10332;50.208;18.988;2022-07-06T01:31:28;98171.94;;;19.92;97.04
20350;BME280;10332;50.208;18.988;2022-07-06T01:33:56;98157.03;;;19.91;97.11
20350;BME280;10332;50.208;18.988;2022-07-06T01:36:24;98155.53;;;19.88;97.05
20350;BME280;10332;50.208;18.988;2022-07-06T01:38:55;98163.13;;;19.83;96.91
20350;BME280;10332;50.208;18.988;2022-07-06T01:41:25;98159.47;;;19.76;96.92
20350;BME280;10332;50.208;18.988;2022-07-06T01:43:53;98162.28;;;19.74;97.01
20350;BME280;10332;50.208;18.988;2022-07-06T01:46:20;98162.94;;;19.68;97.49
20350;BME280;10332;50.208;18.988;2022-07-06T01:48:48;98158.78;;;19.66;97.44
20350;BME280;10332;50.208;18.988;2022-07-06T01:51:15;98156.44;;;19.63;97.29
20350;BME280;10332;50.208;18.988;2022-07-06T01:53:43;98164.19;;;19.56;97.48
20350;BME280;10332;50.208;18.988;2022-07-06T01:56:11;98165.66;;;19.50;97.54
20350;BME280;10332;50.208;18.988;2022-07-06T01:58:39;98170.59;;;19.45;97.67
20350;BME280;10332;50.208;18.988;2022-07-06T02:01:18;98163.75;;;19.35;97.73
20350;BME280;10332;50.208;18.988;2022-07-06T02:03:46;98169.22;;;19.33;98.12
20350;BME280;10332;50.208;18.988;2022-07-06T02:06:14;98165.03;;;19.31;98.23
20350;BME280;10332;50.208;18.988;2022-07-06T02:08:42;98173.97;;;19.29;98.13
20350;BME280;10332;50.208;18.988;2022-07-06T02:11:10;98156.75;;;19.25;98.41
20350;BME280;10332;50.208;18.988;2022-07-06T02:13:38;98155.94;;;19.25;97.94
20350;BME280;10332;50.208;18.988;2022-07-06T02:16:05;98159.56;;;19.24;97.88
20350;BME280;10332;50.208;18.988;2022-07-06T02:18:33;98156.09;;;19.23;97.62
20350;BME280;10332;50.208;18.988;2022-07-06T02:21:01;98153.91;;;19.19;97.63
20350;BME280;10332;50.208;18.988;2022-07-06T02:23:28;98146.44;;;19.14;97.70
20350;BME280;10332;50.208;18.988;2022-07-06T02:25:55;98153.34;;;19.07;98.14
20350;BME280;10332;50.208;18.988;2022-07-06T02:28:23;98149.19;;;19.05;98.30
20350;BME280;10332;50.208;18.988;2022-07-06T02:30:51;98161.75;;;19.03;98.20
20350;BME280;10332;50.208;18.988;2022-07-06T02:33:18;98168.19;;;19.00;98.52
20350;BME280;10332;50.208;18.988;2022-07-06T02:35:46;98170.66;;;19.02;98.32
20350;BME280;10332;50.208;18.988;2022-07-06T02:38:13;98164.94;;;19.06;98.23
20350;BME280;10332;50.208;18.988;2022-07-06T02:40:40;98178.16;;;19.06;98.95
20350;BME280;10332;50.208;18.988;2022-07-06T02:43:08;98171.72;;;19.09;99.00
20350;BME280;10332;50.208;18.988;2022-07-06T02:45:35;98168.75;;;19.12;98.63
20350;BME280;10332;50.208;18.988;2022-07-06T02:48:03;98163.28;;;19.13;98.59
20350;BME280;10332;50.208;18.988;2022-07-06T02:50:30;98168.44;;;19.15;98.51
20350;BME280;10332;50.208;18.988;2022-07-06T02:52:58;98162.84;;;19.18;98.46
20350;BME280;10332;50.208;18.988;2022-07-06T02:55:29;98170.44;;;19.21;98.34
20350;BME280;10332;50.208;18.988;2022-07-06T02:57:56;98176.41;;;19.23;98.04
20350;BME280;10332;50.208;18.988;2022-07-06T03:00:23;98173.63;;;19.24;97.82
20350;BME280;10332;50.208;18.988;2022-07-06T03:02:51;98174.31;;;19.26;97.81
20350;BME280;10332;50.208;18.988;2022-07-06T03:05:18;98179.28;;;19.29;97.59
20350;BME280;10332;50.208;18.988;2022-07-06T03:07:45;98174.81;;;19.30;97.59
20350;BME280;10332;50.208;18.988;2022-07-06T03:10:13;98172.47;;;19.27;97.87
20350;BME280;10332;50.208;18.988;2022-07-06T03:12:40;98178.44;;;19.29;97.61
20350;BME280;10332;50.208;18.988;2022-07-06T03:15:08;98180.09;;;19.30;97.50
20350;BME280;10332;50.208;18.988;2022-07-06T03:17:37;98181.75;;;19.31;97.50
20350;BME280;10332;50.208;18.988;2022-07-06T03:20:06;98186.59;;;19.36;97.20
20350;BME280;10332;50.208;18.988;2022-07-06T03:22:33;98190.91;;;19.37;97.29
20350;BME280;10332;50.208;18.988;2022-07-06T03:25:01;98181.47;;;19.34;96.90
20350;BME280;10332;50.208;18.988;2022-07-06T03:27:28;98190.69;;;19.30;96.71
20350;BME280;10332;50.208;18.988;2022-07-06T03:29:55;98193.19;;;19.32;96.58
20350;BME280;10332;50.208;18.988;2022-07-06T03:32:23;98192.34;;;19.31;96.51
20350;BME280;10332;50.208;18.988;2022-07-06T03:34:50;98184.72;;;19.28;96.88
20350;BME280;10332;50.208;18.988;2022-07-06T03:37:17;98187.06;;;19.31;96.70
20350;BME280;10332;50.208;18.988;2022-07-06T03:39:45;98194.69;;;19.34;96.35
20350;BME280;10332;50.208;18.988;2022-07-06T03:42:12;98194.75;;;19.42;96.18
20350;BME280;10332;50.208;18.988;2022-07-06T03:44:39;98200.88;;;19.43;95.97
20350;BME280;10332;50.208;18.988;2022-07-06T03:47:07;98206.81;;;19.45;95.97
20350;BME280;10332;50.208;18.988;2022-07-06T03:49:34;98202.38;;;19.45;95.60
20350;BME280;10332;50.208;18.988;2022-07-06T03:52:01;98211.63;;;19.49;95.39
20350;BME280;10332;50.208;18.988;2022-07-06T03:54:30;98203.34;;;19.44;94.96
20350;BME280;10332;50.208;18.988;2022-07-06T03:56:57;98204.03;;;19.46;94.88
20350;BME280;10332;50.208;18.988;2022-07-06T03:59:25;98208.16;;;19.49;94.94
20350;BME280;10332;50.208;18.988;2022-07-06T04:01:52;98204.50;;;19.42;94.54
20350;BME280;10332;50.208;18.988;2022-07-06T04:04:20;98207.28;;;19.40;94.97
20350;BME280;10332;50.208;18.988;2022-07-06T04:06:47;98206.28;;;19.33;94.84
20350;BME280;10332;50.208;18.988;2022-07-06T04:09:14;98222.84;;;19.35;94.78
20350;BME280;10332;50.208;18.988;2022-07-06T04:11:42;98222.16;;;19.33;94.52
20350;BME280;10332;50.208;18.988;2022-07-06T04:14:10;98236.03;;;19.27;94.63
20350;BME280;10332;50.208;18.988;2022-07-06T04:16:37;98231.59;;;19.10;95.10
20350;BME280;10332;50.208;18.988;2022-07-06T04:19:04;98232.09;;;19.13;94.83
20350;BME280;10332;50.208;18.988;2022-07-06T04:21:32;98232.44;;;19.10;94.89
20350;BME280;10332;50.208;18.988;2022-07-06T04:23:59;98245.16;;;19.07;94.90
20350;BME280;10332;50.208;18.988;2022-07-06T04:26:27;98249.06;;;19.03;95.37
20350;BME280;10332;50.208;18.988;2022-07-06T04:28:54;98251.72;;;19.03;95.43
20350;BME280;10332;50.208;18.988;2022-07-06T04:31:22;98252.34;;;18.96;95.65
20350;BME280;10332;50.208;18.988;2022-07-06T04:33:49;98254.84;;;18.98;95.82
20350;BME280;10332;50.208;18.988;2022-07-06T04:36:16;98252.38;;;19.05;95.79
20350;BME280;10332;50.208;18.988;2022-07-06T04:38:44;98256.25;;;19.10;95.72
20350;BME280;10332;50.208;18.988;2022-07-06T04:41:14;98257.97;;;19.19;95.40
20350;BME280;10332;50.208;18.988;2022-07-06T04:43:42;98253.81;;;19.17;94.91
20350;BME280;10332;50.208;18.988;2022-07-06T04:46:11;98259.94;;;19.17;95.02
20350;BME280;10332;50.208;18.988;2022-07-06T04:48:38;98254.44;;;19.11;94.89
20350;BME280;10332;50.208;18.988;2022-07-06T04:51:06;98255.81;;;19.15;94.92
20350;BME280;10332;50.208;18.988;2022-07-06T04:53:34;98256.31;;;19.18;94.79
20350;BME280;10332;50.208;18.988;2022-07-06T04:56:01;98262.44;;;19.19;95.05
20350;BME280;10332;50.208;18.988;2022-07-06T04:58:28;98261.34;;;19.29;94.51
20350;BME280;10332;50.208;18.988;2022-07-06T05:00:56;98257.56;;;19.32;94.16
20350;BME280;10332;50.208;18.988;2022-07-06T05:03:23;98265.75;;;19.47;93.21
20350;BME280;10332;50.208;18.988;2022-07-06T05:05:51;98267.22;;;19.59;92.69
20350;BME280;10332;50.208;18.988;2022-07-06T05:08:21;98270.56;;;19.69;92.50
20350;BME280;10332;50.208;18.988;2022-07-06T05:10:49;98260.31;;;19.74;91.95
20350;BME280;10332;50.208;18.988;2022-07-06T05:13:17;98267.19;;;19.93;91.34
20350;BME280;10332;50.208;18.988;2022-07-06T05:15:44;98270.41;;;20.05;90.37
20350;BME280;10332;50.208;18.988;2022-07-06T05:18:12;98268.78;;;20.20;89.66
20350;BME280;10332;50.208;18.988;2022-07-06T05:20:39;98262.56;;;20.46;88.79
20350;BME280;10332;50.208;18.988;2022-07-06T05:23:07;98255.97;;;20.74;87.37
20350;BME280;10332;50.208;18.988;2022-07-06T05:25:34;98256.34;;;21.04;86.54
20350;BME280;10332;50.208;18.988;2022-07-06T05:28:03;98256.47;;;21.18;85.71
20350;BME280;10332;50.208;18.988;2022-07-06T05:30:30;98252.53;;;21.31;84.31
20350;BME280;10332;50.208;18.988;2022-07-06T05:32:58;98250.00;;;21.37;83.76
20350;BME280;10332;50.208;18.988;2022-07-06T05:35:25;98250.00;;;21.45;83.51
20350;BME280;10332;50.208;18.988;2022-07-06T05:38:12;98256.75;;;21.56;83.31
20350;BME280;10332;50.208;18.988;2022-07-06T05:40:40;98256.44;;;21.59;83.10
20350;BME280;10332;50.208;18.988;2022-07-06T05:43:10;98253.09;;;21.65;82.70
20350;BME280;10332;50.208;18.988;2022-07-06T05:45:42;98263.00;;;21.88;81.93
20350;BME280;10332;50.208;18.988;2022-07-06T05:48:09;98266.59;;;22.03;81.36
20350;BME280;10332;50.208;18.988;2022-07-06T05:50:56;98271.81;;;22.27;80.81
20350;BME280;10332;50.208;18.988;2022-07-06T05:53:23;98276.72;;;22.47;80.16
20350;BME280;10332;50.208;18.988;2022-07-06T05:55:51;98286.63;;;22.53;79.66
20350;BME280;10332;50.208;18.988;2022-07-06T05:58:18;98280.63;;;22.59;79.70
20350;BME280;10332;50.208;18.988;2022-07-06T06:00:46;98284.25;;;22.66;79.45
20350;BME280;10332;50.208;18.988;2022-07-06T06:03:13;98288.50;;;22.75;78.54
20350;BME280;10332;50.208;18.988;2022-07-06T06:05:41;98291.81;;;22.77;78.11
20350;BME280;10332;50.208;18.988;2022-07-06T06:08:09;98284.28;;;22.58;78.04
20350;BME280;10332;50.208;18.988;2022-07-06T06:10:36;98290.28;;;22.29;78.51
20350;BME280;10332;50.208;18.988;2022-07-06T06:13:04;98298.84;;;21.92;79.32
20350;BME280;10332;50.208;18.988;2022-07-06T06:15:31;98302.25;;;21.77;79.76
20350;BME280;10332;50.208;18.988;2022-07-06T06:17:59;98308.44;;;21.53;80.80
20350;BME280;10332;50.208;18.988;2022-07-06T06:20:27;98314.41;;;21.56;81.17
20350;BME280;10332;50.208;18.988;2022-07-06T06:22:57;98310.28;;;21.37;81.82
20350;BME280;10332;50.208;18.988;2022-07-06T06:25:32;98325.56;;;21.27;82.07
20350;BME280;10332;50.208;18.988;2022-07-06T06:28:02;98326.50;;;20.93;83.60
20350;BME280;10332;50.208;18.988;2022-07-06T06:30:31;98343.41;;;20.67;84.55
20350;BME280;10332;50.208;18.988;2022-07-06T06:33:16;98328.84;;;20.37;84.87
20350;BME280;10332;50.208;18.988;2022-07-06T06:35:48;98325.28;;;20.63;83.62
20350;BME280;10332;50.208;18.988;2022-07-06T06:38:17;98329.97;;;20.77;83.48
20350;BME280;10332;50.208;18.988;2022-07-06T06:40:45;98333.28;;;20.79;83.44
20350;BME280;10332;50.208;18.988;2022-07-06T06:43:13;98340.44;;;20.79;83.67
20350;BME280;10332;50.208;18.988;2022-07-06T06:45:40;98349.28;;;21.12;81.96
20350;BME280;10332;50.208;18.988;2022-07-06T06:48:08;98345.81;;;21.44;80.54
20350;BME280;10332;50.208;18.988;2022-07-06T06:50:44;98343.78;;;21.13;81.22
20350;BME280;10332;50.208;18.988;2022-07-06T06:53:12;98343.28;;;21.18;81.00
20350;BME280;10332;50.208;18.988;2022-07-06T06:55:40;98344.09;;;21.02;82.06
20350;BME280;10332;50.208;18.988;2022-07-06T06:58:07;98337.72;;;20.62;84.18
20350;BME280;10332;50.208;18.988;2022-07-06T07:00:35;98337.72;;;20.62;84.65
20350;BME280;10332;50.208;18.988;2022-07-06T07:03:02;98332.34;;;21.13;82.89
20350;BME280;10332;50.208;18.988;2022-07-06T07:05:29;98334.53;;;21.34;82.08
20350;BME280;10332;50.208;18.988;2022-07-06T07:07:57;98330.88;;;21.43;82.09
20350;BME280;10332;50.208;18.988;2022-07-06T07:10:32;98334.34;;;21.35;81.74
20350;BME280;10332;50.208;18.988;2022-07-06T07:13:00;98343.63;;;21.47;81.04
20350;BME280;10332;50.208;18.988;2022-07-06T07:15:27;98350.59;;;21.73;80.35
20350;BME280;10332;50.208;18.988;2022-07-06T07:17:55;98335.81;;;21.62;80.24
20350;BME280;10332;50.208;18.988;2022-07-06T07:20:22;98346.28;;;21.23;81.49
20350;BME280;10332;50.208;18.988;2022-07-06T07:22:50;98356.41;;;21.03;81.35
20350;BME280;10332;50.208;18.988;2022-07-06T07:25:18;98353.41;;;20.98;81.96
20350;BME280;10332;50.208;18.988;2022-07-06T07:27:45;98366.97;;;20.79;81.54
20350;BME280;10332;50.208;18.988;2022-07-06T07:30:12;98372.31;;;20.45;81.67
20350;BME280;10332;50.208;18.988;2022-07-06T07:32:40;98369.22;;;20.57;81.06
20350;BME280;10332;50.208;18.988;2022-07-06T07:35:10;98375.03;;;20.61;80.11
20350;BME280;10332;50.208;18.988;2022-07-06T07:37:37;98371.75;;;20.67;79.43
20350;BME280;10332;50.208;18.988;2022-07-06T07:40:05;98367.28;;;20.84;78.98
20350;BME280;10332;50.208;18.988;2022-07-06T07:42:33;98366.34;;;21.01;78.16
20350;BME280;10332;50.208;18.988;2022-07-06T07:45:00;98391.88;;;21.02;76.57
20350;BME280;10332;50.208;18.988;2022-07-06T07:47:28;98382.09;;;21.03;76.60
20350;BME280;10332;50.208;18.988;2022-07-06T07:49:55;98392.75;;;21.19;75.51
20350;BME280;10332;50.208;18.988;2022-07-06T07:52:22;98381.25;;;21.02;75.73
20350;BME280;10332;50.208;18.988;2022-07-06T07:54:50;98379.28;;;20.96;75.56
20350;BME280;10332;50.208;18.988;2022-07-06T07:57:38;98379.63;;;21.99;73.31
20350;BME280;10332;50.208;18.988;2022-07-06T08:00:07;98380.44;;;22.94;68.89
20350;BME280;10332;50.208;18.988;2022-07-06T08:02:34;98372.97;;;23.35;67.49
20350;BME280;10332;50.208;18.988;2022-07-06T08:05:04;98378.19;;;23.89;65.90
20350;BME280;10332;50.208;18.988;2022-07-06T08:07:31;98377.75;;;24.59;62.94
20350;BME280;10332;50.208;18.988;2022-07-06T08:09:59;98377.50;;;24.54;63.76
20350;BME280;10332;50.208;18.988;2022-07-06T08:12:26;98380.50;;;24.81;62.58
20350;BME280;10332;50.208;18.988;2022-07-06T08:14:54;98387.44;;;24.97;61.39
20350;BME280;10332;50.208;18.988;2022-07-06T08:17:21;98384.75;;;25.33;59.36
20350;BME280;10332;50.208;18.988;2022-07-06T08:19:48;98392.59;;;26.12;56.94
20350;BME280;10332;50.208;18.988;2022-07-06T08:22:15;98381.91;;;26.12;56.16
20350;BME280;10332;50.208;18.988;2022-07-06T08:24:43;98386.94;;;25.93;56.39
20350;BME280;10332;50.208;18.988;2022-07-06T08:27:10;98392.34;;;26.00;56.11
20350;BME280;10332;50.208;18.988;2022-07-06T08:29:38;98384.78;;;26.10;56.74
20350;BME280;10332;50.208;18.988;2022-07-06T08:32:06;98380.09;;;26.19;56.38
20350;BME280;10332;50.208;18.988;2022-07-06T08:34:47;98377.72;;;26.37;57.82
20350;BME280;10332;50.208;18.988;2022-07-06T08:37:14;98381.75;;;26.54;57.35
20350;BME280;10332;50.208;18.988;2022-07-06T08:39:42;98373.84;;;26.40;55.75
20350;BME280;10332;50.208;18.988;2022-07-06T08:42:09;98372.38;;;26.37;53.90
20350;BME280;10332;50.208;18.988;2022-07-06T08:44:38;98366.28;;;26.15;54.00
20350;BME280;10332;50.208;18.988;2022-07-06T08:47:06;98376.47;;;25.98;54.78
20350;BME280;10332;50.208;18.988;2022-07-06T08:49:35;98366.50;;;25.64;54.68
20350;BME280;10332;50.208;18.988;2022-07-06T08:52:05;98370.84;;;25.65;54.96
20350;BME280;10332;50.208;18.988;2022-07-06T08:54:33;98369.63;;;25.68;55.50
20350;BME280;10332;50.208;18.988;2022-07-06T08:57:03;98369.19;;;25.64;54.80
20350;BME280;10332;50.208;18.988;2022-07-06T08:59:31;98381.66;;;25.79;55.19
20350;BME280;10332;50.208;18.988;2022-07-06T09:02:00;98373.94;;;25.69;53.49
20350;BME280;10332;50.208;18.988;2022-07-06T09:04:36;98363.59;;;25.81;53.80
20350;BME280;10332;50.208;18.988;2022-07-06T09:07:04;98364.63;;;25.80;53.78
20350;BME280;10332;50.208;18.988;2022-07-06T09:09:32;98366.50;;;25.86;53.71
20350;BME280;10332;50.208;18.988;2022-07-06T09:12:00;98362.09;;;25.78;53.48
20350;BME280;10332;50.208;18.988;2022-07-06T09:14:30;98362.41;;;25.68;53.83
20350;BME280;10332;50.208;18.988;2022-07-06T09:17:06;98357.47;;;25.65;53.64
20350;BME280;10332;50.208;18.988;2022-07-06T09:19:45;98348.22;;;25.89;53.75
20350;BME280;10332;50.208;18.988;2022-07-06T09:22:30;98359.75;;;25.90;52.99
20350;BME280;10332;50.208;18.988;2022-07-06T09:25:11;98352.09;;;26.56;51.92
20350;BME280;10332;50.208;18.988;2022-07-06T09:27:46;98357.47;;;27.63;49.08
20350;BME280;10332;50.208;18.988;2022-07-06T09:30:16;98345.22;;;28.78;47.05
20350;BME280;10332;50.208;18.988;2022-07-06T09:32:50;98343.44;;;29.04;45.19
20350;BME280;10332;50.208;18.988;2022-07-06T09:35:36;98348.16;;;29.08;45.07
20350;BME280;10332;50.208;18.988;2022-07-06T09:38:14;98350.69;;;29.03;44.05
20350;BME280;10332;50.208;18.988;2022-07-06T09:40:44;98349.84;;;29.66;43.52
20350;BME280;10332;50.208;18.988;2022-07-06T09:43:19;98353.47;;;30.40;42.28
20350;BME280;10332;50.208;18.988;2022-07-06T09:45:57;98350.25;;;30.06;41.68
20350;BME280;10332;50.208;18.988;2022-07-06T09:48:27;98351.16;;;30.00;42.23
20350;BME280;10332;50.208;18.988;2022-07-06T09:51:01;98353.28;;;29.48;42.07
20350;BME280;10332;50.208;18.988;2022-07-06T09:53:35;98357.19;;;29.52;43.07
20350;BME280;10332;50.208;18.988;2022-07-06T09:56:03;98366.09;;;29.78;42.41
20350;BME280;10332;50.208;18.988;2022-07-06T09:58:31;98361.53;;;29.53;41.75
20350;BME280;10332;50.208;18.988;2022-07-06T10:01:28;98371.06;;;29.18;41.47
20350;BME280;10332;50.208;18.988;2022-07-06T10:03:57;98363.59;;;28.81;40.17
20350;BME280;10332;50.208;18.988;2022-07-06T10:06:25;98372.69;;;29.25;40.90
20350;BME280;10332;50.208;18.988;2022-07-06T10:08:58;98363.59;;;29.20;41.24
20350;BME280;10332;50.208;18.988;2022-07-06T10:11:28;98366.72;;;29.48;40.99
20350;BME280;10332;50.208;18.988;2022-07-06T10:13:57;98361.91;;;29.82;40.92
20350;BME280;10332;50.208;18.988;2022-07-06T10:16:25;98363.38;;;30.03;40.79
20350;BME280;10332;50.208;18.988;2022-07-06T10:18:53;98360.09;;;31.04;39.40
20350;BME280;10332;50.208;18.988;2022-07-06T10:21:23;98354.06;;;31.97;39.12
20350;BME280;10332;50.208;18.988;2022-07-06T10:23:51;98344.47;;;32.93;37.74
20350;BME280;10332;50.208;18.988;2022-07-06T10:26:21;98361.19;;;33.19;35.61
20350;BME280;10332;50.208;18.988;2022-07-06T10:28:52;98359.78;;;33.33;34.40
20350;BME280;10332;50.208;18.988;2022-07-06T10:31:20;98357.91;;;33.33;35.11
20350;BME280;10332;50.208;18.988;2022-07-06T10:33:48;98367.91;;;33.33;33.95
20350;BME280;10332;50.208;18.988;2022-07-06T10:36:16;98375.28;;;32.64;33.16
20350;BME280;10332;50.208;18.988;2022-07-06T10:38:50;98372.53;;;32.35;33.89
20350;BME280;10332;50.208;18.988;2022-07-06T10:41:30;98374.88;;;31.97;34.49
20350;BME280;10332;50.208;18.988;2022-07-06T10:43:58;98360.53;;;31.96;35.17
20350;BME280;10332;50.208;18.988;2022-07-06T10:46:41;98364.13;;;32.25;35.28
20350;BME280;10332;50.208;18.988;2022-07-06T10:49:17;98359.81;;;32.76;35.07
20350;BME280;10332;50.208;18.988;2022-07-06T10:52:05;98362.03;;;32.91;35.15
20350;BME280;10332;50.208;18.988;2022-07-06T10:54:39;98362.69;;;33.26;34.11
20350;BME280;10332;50.208;18.988;2022-07-06T10:57:10;98358.94;;;33.16;34.78
20350;BME280;10332;50.208;18.988;2022-07-06T11:00:04;98364.69;;;33.02;34.35
20350;BME280;10332;50.208;18.988;2022-07-06T11:02:38;98364.28;;;32.70;33.65
20350;BME280;10332;50.208;18.988;2022-07-06T11:05:42;98371.31;;;32.43;34.69
20350;BME280;10332;50.208;18.988;2022-07-06T11:08:50;98378.47;;;31.55;35.46
20350;BME280;10332;50.208;18.988;2022-07-06T11:14:16;98381.75;;;30.49;38.29
20350;BME280;10332;50.208;18.988;2022-07-06T11:19:20;98385.38;;;29.50;39.60
20350;BME280;10332;50.208;18.988;2022-07-06T11:21:52;98389.78;;;28.99;40.61
20350;BME280;10332;50.208;18.988;2022-07-06T11:24:24;98390.00;;;28.98;41.80
20350;BME280;10332;50.208;18.988;2022-07-06T11:26:53;98387.34;;;28.84;42.15
20350;BME280;10332;50.208;18.988;2022-07-06T11:29:23;98383.91;;;29.16;42.15
20350;BME280;10332;50.208;18.988;2022-07-06T11:31:54;98386.00;;;29.14;42.17
20350;BME280;10332;50.208;18.988;2022-07-06T11:34:36;98387.63;;;29.46;41.70
20350;BME280;10332;50.208;18.988;2022-07-06T11:37:12;98382.94;;;29.35;41.41
20350;BME280;10332;50.208;18.988;2022-07-06T11:39:42;98393.50;;;29.68;41.05
20350;BME280;10332;50.208;18.988;2022-07-06T11:42:12;98381.41;;;30.02;41.14
20350;BME280;10332;50.208;18.988;2022-07-06T11:44:41;98383.97;;;30.34;40.57
20350;BME280;10332;50.208;18.988;2022-07-06T11:47:11;98396.56;;;30.21;40.00
20350;BME280;10332;50.208;18.988;2022-07-06T11:49:40;98383.53;;;30.55;39.36
20350;BME280;10332;50.208;18.988;2022-07-06T11:52:10;98395.50;;;30.59;39.41
20350;BME280;10332;50.208;18.988;2022-07-06T11:54:39;98391.56;;;31.10;38.76
20350;BME280;10332;50.208;18.988;2022-07-06T11:57:10;98385.72;;;31.13;38.98
20350;BME280;10332;50.208;18.988;2022-07-06T11:59:41;98400.34;;;31.35;39.13
20350;BME280;10332;50.208;18.988;2022-07-06T12:02:12;98389.47;;;31.54;38.79
20350;BME280;10332;50.208;18.988;2022-07-06T12:04:45;98378.59;;;31.19;38.01
20350;BME280;10332;50.208;18.988;2022-07-06T12:07:15;98380.75;;;31.28;38.31
20350;BME280;10332;50.208;18.988;2022-07-06T12:09:46;98376.69;;;31.49;37.88
20350;BME280;10332;50.208;18.988;2022-07-06T12:12:14;98384.88;;;31.13;37.75
20350;BME280;10332;50.208;18.988;2022-07-06T12:14:43;98382.38;;;30.99;38.09
20350;BME280;10332;50.208;18.988;2022-07-06T12:17:15;98378.06;;;31.40;37.25
20350;BME280;10332;50.208;18.988;2022-07-06T12:19:43;98368.66;;;31.31;37.72
20350;BME280;10332;50.208;18.988;2022-07-06T12:22:11;98365.00;;;31.25;38.63
20350;BME280;10332;50.208;18.988;2022-07-06T12:24:43;98380.53;;;31.30;37.31
20350;BME280;10332;50.208;18.988;2022-07-06T12:27:16;98381.81;;;30.79;37.51
20350;BME280;10332;50.208;18.988;2022-07-06T12:29:45;98370.81;;;30.26;38.21
20350;BME280;10332;50.208;18.988;2022-07-06T12:32:20;98369.00;;;30.19;38.19
20350;BME280;10332;50.208;18.988;2022-07-06T12:35:05;98360.72;;;30.39;39.54
20350;BME280;10332;50.208;18.988;2022-07-06T12:37:34;98365.94;;;30.71;38.53
20350;BME280;10332;50.208;18.988;2022-07-06T12:40:04;98360.63;;;30.83;36.81
20350;BME280;10332;50.208;18.988;2022-07-06T12:42:46;98357.47;;;30.86;36.29
20350;BME280;10332;50.208;18.988;2022-07-06T12:45:16;98361.84;;;31.28;36.62
20350;BME280;10332;50.208;18.988;2022-07-06T12:48:01;98364.09;;;31.31;37.10
20350;BME280;10332;50.208;18.988;2022-07-06T12:50:38;98360.66;;;30.94;37.37
20350;BME280;10332;50.208;18.988;2022-07-06T12:53:24;98358.56;;;30.30;38.28
20350;BME280;10332;50.208;18.988;2022-07-06T12:56:12;98363.47;;;29.89;38.98
20350;BME280;10332;50.208;18.988;2022-07-06T12:58:57;98359.47;;;29.74;39.66
20350;BME280;10332;50.208;18.988;2022-07-06T13:01:25;98347.13;;;29.41;40.11
20350;BME280;10332;50.208;18.988;2022-07-06T13:03:57;98353.97;;;28.67;40.65
20350;BME280;10332;50.208;18.988;2022-07-06T13:06:33;98356.13;;;28.39;41.84
20350;BME280;10332;50.208;18.988;2022-07-06T13:09:01;98349.69;;;28.46;42.22
20350;BME280;10332;50.208;18.988;2022-07-06T13:11:28;98344.16;;;28.86;41.53